createdAt,value
2019-03-15T00:00:26.386Z,5.33
2019-03-15T00:01:24.283Z,5.44
2019-03-15T00:02:25.348Z,5.52
2019-03-15T00:03:24.264Z,5.49
2019-03-15T00:04:24.284Z,5.49
2019-03-15T00:05:24.235Z,5.55
2019-03-15T00:06:24.934Z,5.55
2019-03-15T00:07:25.285Z,5.56
2019-03-15T00:08:24.205Z,5.56
2019-03-15T00:09:24.235Z,5.55
2019-03-15T00:10:24.188Z,5.59
2019-03-15T00:11:24.226Z,5.55
2019-03-15T00:12:24.166Z,5.59
2019-03-15T00:13:24.267Z,5.62
2019-03-15T00:14:24.158Z,5.65
2019-03-15T00:15:24.201Z,5.65
2019-03-15T00:16:24.109Z,5.73
2019-03-15T00:17:24.111Z,5.77
2019-03-15T00:18:24.100Z,5.77
2019-03-15T00:19:24.110Z,5.77
2019-03-15T00:20:24.071Z,5.83
2019-03-15T00:21:24.111Z,5.85
2019-03-15T00:22:24.068Z,5.88
2019-03-15T00:23:24.031Z,5.92
2019-03-15T00:24:27.433Z,5.98
2019-03-15T00:25:24.002Z,5.92
2019-03-15T00:26:24.042Z,5.92
2019-03-15T00:27:23.984Z,6.03
2019-03-15T00:28:23.974Z,6.03
2019-03-15T00:29:23.974Z,5.95
2019-03-15T00:30:24.018Z,5.96
2019-03-15T00:31:23.936Z,5.88
2019-03-15T00:32:24.977Z,5.85
2019-03-15T00:33:24.504Z,5.88
2019-03-15T00:34:24.027Z,5.99
2019-03-15T00:35:23.889Z,5.92
2019-03-15T00:36:25.967Z,6.01
2019-03-15T00:37:23.869Z,6.05
2019-03-15T00:38:24.018Z,6.03
2019-03-15T00:39:23.869Z,6.11
2019-03-15T00:40:23.888Z,6.13
2019-03-15T00:41:23.830Z,6.10
2019-03-15T00:42:23.834Z,6.14
2019-03-15T00:43:23.799Z,6.14
2019-03-15T00:44:23.801Z,6.16
2019-03-15T00:45:24.862Z,6.11
2019-03-15T00:46:24.032Z,6.14
2019-03-15T00:47:24.798Z,6.13
2019-03-15T00:48:23.742Z,6.17
2019-03-15T00:49:23.753Z,6.06
2019-03-15T00:50:23.732Z,6.11
2019-03-15T00:51:23.902Z,6.08
2019-03-15T00:52:23.704Z,6.14
2019-03-15T00:53:23.786Z,6.10
2019-03-15T00:54:24.724Z,6.05
2019-03-15T00:55:23.674Z,6.11
2019-03-15T00:56:23.685Z,6.05
2019-03-15T00:57:23.646Z,6.11
2019-03-15T00:58:23.719Z,6.11
2019-03-15T00:59:23.636Z,6.05
2019-03-15T01:00:23.625Z,6.11
2019-03-15T01:01:23.629Z,6.14
2019-03-15T01:02:23.588Z,6.24
2019-03-15T01:03:23.667Z,6.14
2019-03-15T01:04:23.568Z,6.08
2019-03-15T01:05:23.548Z,6.11
2019-03-15T01:06:23.532Z,6.14
2019-03-15T01:07:23.640Z,6.14
2019-03-15T01:08:23.513Z,6.14
2019-03-15T01:09:23.627Z,6.11
2019-03-15T01:10:23.491Z,6.24
2019-03-15T01:11:23.512Z,6.25
2019-03-15T01:12:23.462Z,6.17
2019-03-15T01:13:23.543Z,6.11
2019-03-15T01:14:23.447Z,6.11
2019-03-15T01:15:23.524Z,6.11
2019-03-15T01:16:23.453Z,6.05
2019-03-15T01:17:23.403Z,6.24
2019-03-15T01:18:23.483Z,6.35
2019-03-15T01:19:23.374Z,6.33
2019-03-15T01:20:23.465Z,6.33
2019-03-15T01:21:23.395Z,6.35
2019-03-15T01:22:23.345Z,6.27
2019-03-15T01:23:23.428Z,6.21
2019-03-15T01:24:23.326Z,6.28
2019-03-15T01:25:24.439Z,6.30
2019-03-15T01:26:23.308Z,6.35
2019-03-15T01:27:23.399Z,6.39
2019-03-15T01:28:23.288Z,6.30
2019-03-15T01:29:24.359Z,6.25
2019-03-15T01:30:23.290Z,6.25
2019-03-15T01:31:24.300Z,6.17
2019-03-15T01:32:23.254Z,6.16
2019-03-15T01:33:23.379Z,6.10
2019-03-15T01:34:23.221Z,6.11
2019-03-15T01:35:23.291Z,6.02
2019-03-15T01:36:23.203Z,5.98
2019-03-15T01:37:23.192Z,5.98
2019-03-15T01:38:23.182Z,6.02
2019-03-15T01:39:23.212Z,5.98
2019-03-15T01:40:23.163Z,5.92
2019-03-15T01:41:24.173Z,5.93
2019-03-15T01:42:23.135Z,5.93
2019-03-15T01:43:25.134Z,5.93
2019-03-15T01:44:23.094Z,5.80
2019-03-15T01:45:23.176Z,5.85
2019-03-15T01:46:23.087Z,5.85
2019-03-15T01:47:23.185Z,5.87
2019-03-15T01:48:23.076Z,5.80
2019-03-15T01:49:23.087Z,5.88
2019-03-15T01:50:23.049Z,5.85
2019-03-15T01:51:24.051Z,5.87
2019-03-15T01:52:23.008Z,5.83
2019-03-15T01:53:23.493Z,5.75
2019-03-15T01:54:22.981Z,5.84
2019-03-15T01:55:24.059Z,5.84
2019-03-15T01:56:22.959Z,5.75
2019-03-15T01:57:23.033Z,5.81
2019-03-15T01:58:22.941Z,5.81
2019-03-15T01:59:23.050Z,5.84
2019-03-15T02:00:22.983Z,5.70
2019-03-15T02:01:22.904Z,5.73
2019-03-15T02:02:22.972Z,5.77
2019-03-15T02:03:22.883Z,5.81
2019-03-15T02:04:22.862Z,5.74
2019-03-15T02:05:22.875Z,5.66
2019-03-15T02:06:24.953Z,5.58
2019-03-15T02:07:22.834Z,5.63
2019-03-15T02:08:22.874Z,5.59
2019-03-15T02:09:22.825Z,5.59
2019-03-15T02:10:23.016Z,5.60
2019-03-15T02:11:22.896Z,5.62
2019-03-15T02:12:22.786Z,5.74
2019-03-15T02:13:22.826Z,5.63
2019-03-15T02:14:22.767Z,5.65
2019-03-15T02:15:22.767Z,5.66
2019-03-15T02:16:22.738Z,5.67
2019-03-15T02:17:22.799Z,5.67
2019-03-15T02:18:22.718Z,5.65
2019-03-15T02:19:23.758Z,5.63
2019-03-15T02:20:22.709Z,5.65
2019-03-15T02:21:22.776Z,5.62
2019-03-15T02:22:22.659Z,5.58
2019-03-15T02:23:23.740Z,5.60
2019-03-15T02:24:22.640Z,5.56
2019-03-15T02:25:22.681Z,5.52
2019-03-15T02:26:22.771Z,5.52
2019-03-15T02:27:22.602Z,5.58
2019-03-15T02:28:22.643Z,5.59
2019-03-15T02:29:22.593Z,5.58
2019-03-15T02:30:22.614Z,5.65
2019-03-15T02:31:22.555Z,5.62
2019-03-15T02:32:22.632Z,5.65
2019-03-15T02:33:22.537Z,5.60
2019-03-15T02:34:22.546Z,5.60
2019-03-15T02:35:22.527Z,5.55
2019-03-15T02:36:22.587Z,5.69
2019-03-15T02:37:22.485Z,5.66
2019-03-15T02:38:22.517Z,5.73
2019-03-15T02:39:22.468Z,5.75
2019-03-15T02:40:22.501Z,5.77
2019-03-15T02:41:22.447Z,5.85
2019-03-15T02:42:22.431Z,5.85
2019-03-15T02:43:22.421Z,5.81
2019-03-15T02:44:22.430Z,5.78
2019-03-15T02:45:22.410Z,5.87
2019-03-15T02:46:23.491Z,5.78
2019-03-15T02:47:22.372Z,5.78
2019-03-15T02:48:22.364Z,5.84
2019-03-15T02:49:22.464Z,5.77
2019-03-15T02:50:22.354Z,5.87
2019-03-15T02:51:23.687Z,5.84
2019-03-15T02:52:22.334Z,5.77
2019-03-15T02:53:22.314Z,5.70
2019-03-15T02:54:22.324Z,5.80
2019-03-15T02:55:23.346Z,5.70
2019-03-15T02:56:22.283Z,5.74
2019-03-15T02:57:22.320Z,5.80
2019-03-15T02:58:22.269Z,5.77
2019-03-15T02:59:23.276Z,5.75
2019-03-15T03:00:22.249Z,5.73
2019-03-15T03:01:22.288Z,5.75
2019-03-15T03:02:22.217Z,5.73
2019-03-15T03:03:22.216Z,5.66
2019-03-15T03:04:22.187Z,5.60
2019-03-15T03:05:22.420Z,5.58
2019-03-15T03:06:22.169Z,5.60
2019-03-15T03:07:22.190Z,5.55
2019-03-15T03:08:22.134Z,5.49
2019-03-15T03:09:22.124Z,5.52
2019-03-15T03:10:22.240Z,5.49
2019-03-15T03:11:22.101Z,5.45
2019-03-15T03:12:23.171Z,5.47
2019-03-15T03:13:22.082Z,5.52
2019-03-15T03:14:22.074Z,5.49
2019-03-15T03:15:22.072Z,5.52
2019-03-15T03:16:23.173Z,5.58
2019-03-15T03:17:22.033Z,5.56
2019-03-15T03:18:23.063Z,5.49
2019-03-15T03:19:22.254Z,5.56
2019-03-15T03:20:21.994Z,5.56
2019-03-15T03:21:22.086Z,5.52
2019-03-15T03:22:21.974Z,5.62
2019-03-15T03:23:22.997Z,5.65
2019-03-15T03:24:22.206Z,5.65
2019-03-15T03:25:21.936Z,5.75
2019-03-15T03:26:22.026Z,5.87
2019-03-15T03:27:21.918Z,5.75
2019-03-15T03:28:22.020Z,5.75
2019-03-15T03:29:22.048Z,5.81
2019-03-15T03:30:21.879Z,5.75
2019-03-15T03:31:21.902Z,5.65
2019-03-15T03:32:21.902Z,5.70
2019-03-15T03:33:21.862Z,5.67
2019-03-15T03:34:21.931Z,5.65
2019-03-15T03:35:21.831Z,5.58
2019-03-15T03:36:21.911Z,5.59
2019-03-15T03:37:21.812Z,5.66
2019-03-15T03:38:21.902Z,5.63
2019-03-15T03:39:21.793Z,5.62
2019-03-15T03:40:21.835Z,5.62
2019-03-15T03:41:23.148Z,5.65
2019-03-15T03:42:21.782Z,5.59
2019-03-15T03:43:21.743Z,5.60
2019-03-15T03:44:21.803Z,5.51
2019-03-15T03:45:23.348Z,5.49
2019-03-15T03:46:21.714Z,5.48
2019-03-15T03:47:21.685Z,5.51
2019-03-15T03:48:21.780Z,5.55
2019-03-15T03:49:21.670Z,5.51
2019-03-15T03:50:21.717Z,5.47
2019-03-15T03:51:21.656Z,5.48
2019-03-15T03:52:21.647Z,5.51
2019-03-15T03:53:21.618Z,5.56
2019-03-15T03:54:21.688Z,5.55
2019-03-15T03:55:21.601Z,5.55
2019-03-15T03:56:22.690Z,5.49
2019-03-15T03:57:21.569Z,5.49
2019-03-15T03:58:21.660Z,5.49
2019-03-15T03:59:21.552Z,5.51
2019-03-15T04:00:21.591Z,5.49
2019-03-15T04:01:21.540Z,5.48
2019-03-15T04:02:21.511Z,5.51
2019-03-15T04:03:21.501Z,5.38
2019-03-15T04:04:21.563Z,5.48
2019-03-15T04:05:21.473Z,5.55
2019-03-15T04:06:21.532Z,5.58
2019-03-15T04:07:21.563Z,5.59
2019-03-15T04:08:21.453Z,5.59
2019-03-15T04:09:21.507Z,5.60
2019-03-15T04:10:21.425Z,5.66
2019-03-15T04:11:21.488Z,5.63
2019-03-15T04:12:21.401Z,5.49
2019-03-15T04:13:21.468Z,5.66
2019-03-15T04:14:21.375Z,5.65
2019-03-15T04:15:21.418Z,5.65
2019-03-15T04:16:21.377Z,5.66
2019-03-15T04:17:22.367Z,5.70
2019-03-15T04:18:21.354Z,5.73
2019-03-15T04:19:21.388Z,5.78
2019-03-15T04:20:21.322Z,5.81
2019-03-15T04:21:21.369Z,5.81
2019-03-15T04:22:21.290Z,5.84
2019-03-15T04:23:21.280Z,5.85
2019-03-15T04:24:21.270Z,5.85
2019-03-15T04:25:21.377Z,5.88
2019-03-15T04:26:21.250Z,5.85
2019-03-15T04:27:21.337Z,5.83
2019-03-15T04:28:21.213Z,5.75
2019-03-15T04:29:21.259Z,5.70
2019-03-15T04:30:21.192Z,5.73
2019-03-15T04:31:22.262Z,5.66
2019-03-15T04:32:21.183Z,5.66
2019-03-15T04:33:22.271Z,5.62
2019-03-15T04:34:21.144Z,5.62
2019-03-15T04:35:21.164Z,5.58
2019-03-15T04:36:21.136Z,5.65
2019-03-15T04:37:22.881Z,5.66
2019-03-15T04:38:21.095Z,5.62
2019-03-15T04:39:21.085Z,5.63
2019-03-15T04:40:21.076Z,5.62
2019-03-15T04:41:21.117Z,5.65
2019-03-15T04:42:21.057Z,5.52
2019-03-15T04:43:21.108Z,5.56
2019-03-15T04:44:21.029Z,5.55
2019-03-15T04:45:21.050Z,5.56
2019-03-15T04:46:21.020Z,5.58
2019-03-15T04:47:22.112Z,5.52
2019-03-15T04:48:20.980Z,5.40
2019-03-15T04:49:21.020Z,5.49
2019-03-15T04:50:20.961Z,5.49
2019-03-15T04:51:21.001Z,5.42
2019-03-15T04:52:20.942Z,5.48
2019-03-15T04:53:20.992Z,5.35
2019-03-15T04:54:20.929Z,5.40
2019-03-15T04:55:20.913Z,5.37
2019-03-15T04:56:20.946Z,5.37
2019-03-15T04:57:20.895Z,5.38
2019-03-15T04:58:21.964Z,5.40
2019-03-15T04:59:23.883Z,5.35
2019-03-15T05:00:20.846Z,5.44
2019-03-15T05:01:20.867Z,5.45
2019-03-15T05:02:20.908Z,5.49
2019-03-15T05:03:20.826Z,5.47
2019-03-15T05:04:20.836Z,5.45
2019-03-15T05:05:20.796Z,5.62
2019-03-15T05:06:20.797Z,5.62
2019-03-15T05:07:20.848Z,5.60
2019-03-15T05:08:20.769Z,5.62
2019-03-15T05:09:22.829Z,5.65
2019-03-15T05:10:20.728Z,5.56
2019-03-15T05:11:20.740Z,5.69
2019-03-15T05:12:20.721Z,5.63
2019-03-15T05:13:21.770Z,5.69
2019-03-15T05:14:20.690Z,5.67
2019-03-15T05:15:20.792Z,5.70
2019-03-15T05:16:20.693Z,5.84
2019-03-15T05:17:20.722Z,5.78
2019-03-15T05:18:20.643Z,5.78
2019-03-15T05:19:20.652Z,5.77
2019-03-15T05:20:21.303Z,5.83
2019-03-15T05:21:20.733Z,5.83
2019-03-15T05:22:20.594Z,5.84
2019-03-15T05:23:20.624Z,5.84
2019-03-15T05:24:20.575Z,5.87
2019-03-15T05:25:20.665Z,5.83
2019-03-15T05:26:20.544Z,5.80
2019-03-15T05:27:20.556Z,5.78
2019-03-15T05:28:21.589Z,5.80
2019-03-15T05:29:20.516Z,5.84
2019-03-15T05:30:20.607Z,5.85
2019-03-15T05:31:20.505Z,5.84
2019-03-15T05:32:20.509Z,5.84
2019-03-15T05:33:20.478Z,5.85
2019-03-15T05:34:20.471Z,5.90
2019-03-15T05:35:20.449Z,5.92
2019-03-15T05:36:22.465Z,5.93
2019-03-15T05:37:20.451Z,5.85
2019-03-15T05:38:20.420Z,5.84
2019-03-15T05:39:22.470Z,5.78
2019-03-15T05:40:20.401Z,5.83
2019-03-15T05:41:21.481Z,5.77
2019-03-15T05:42:20.392Z,5.78
2019-03-15T05:43:20.352Z,5.75
2019-03-15T05:44:20.353Z,5.81
2019-03-15T05:45:20.424Z,5.83
2019-03-15T05:46:20.333Z,5.70
2019-03-15T05:47:20.413Z,5.78
2019-03-15T05:48:20.304Z,5.80
2019-03-15T05:49:20.425Z,5.74
2019-03-15T05:50:20.275Z,5.78
2019-03-15T05:51:20.335Z,5.75
2019-03-15T05:52:20.266Z,5.78
2019-03-15T05:53:20.266Z,5.78
2019-03-15T05:54:20.226Z,5.77
2019-03-15T05:55:20.307Z,5.75
2019-03-15T05:56:20.209Z,5.78
2019-03-15T05:57:20.287Z,5.84
2019-03-15T05:58:21.989Z,5.70
2019-03-15T05:59:20.170Z,5.83
2019-03-15T06:00:20.160Z,5.81
2019-03-15T06:01:20.210Z,5.85
2019-03-15T06:02:20.149Z,5.87
2019-03-15T06:03:21.170Z,5.93
2019-03-15T06:04:21.132Z,5.96
2019-03-15T06:05:20.092Z,5.88
2019-03-15T06:06:20.153Z,5.92
2019-03-15T06:07:20.097Z,5.88
2019-03-15T06:08:20.183Z,5.92
2019-03-15T06:09:20.053Z,5.88
2019-03-15T06:10:20.124Z,5.90
2019-03-15T06:11:20.169Z,5.88
2019-03-15T06:12:20.106Z,5.93
2019-03-15T06:13:20.024Z,5.88
2019-03-15T06:14:20.156Z,5.95
2019-03-15T06:15:19.986Z,5.92
2019-03-15T06:16:20.026Z,5.90
2019-03-15T06:17:20.006Z,5.96
2019-03-15T06:18:20.088Z,5.95
2019-03-15T06:19:20.149Z,5.90
2019-03-15T06:20:20.118Z,5.88
2019-03-15T06:21:19.930Z,5.90
2019-03-15T06:22:19.988Z,5.88
2019-03-15T06:23:19.910Z,5.95
2019-03-15T06:24:21.000Z,6.05
2019-03-15T06:25:19.886Z,5.98
2019-03-15T06:26:20.045Z,5.99
2019-03-15T06:27:20.400Z,6.06
2019-03-15T06:28:19.858Z,6.08
2019-03-15T06:29:20.941Z,6.08
2019-03-15T06:30:19.826Z,6.14
2019-03-15T06:31:19.805Z,6.21
2019-03-15T06:32:19.813Z,6.27
2019-03-15T06:33:19.895Z,6.28
2019-03-15T06:34:19.774Z,6.32
2019-03-15T06:35:19.865Z,6.30
2019-03-15T06:36:19.734Z,6.36
2019-03-15T06:37:19.800Z,6.43
2019-03-15T06:38:19.730Z,6.46
2019-03-15T06:39:21.735Z,6.42
2019-03-15T06:40:19.697Z,6.35
2019-03-15T06:41:19.726Z,6.43
2019-03-15T06:42:19.688Z,6.38
2019-03-15T06:43:19.768Z,6.53
2019-03-15T06:44:19.660Z,6.53
2019-03-15T06:45:19.756Z,6.61
2019-03-15T06:46:19.697Z,6.61
2019-03-15T06:47:19.698Z,6.64
2019-03-15T06:48:19.847Z,6.63
2019-03-15T06:49:19.696Z,6.65
2019-03-15T06:50:19.640Z,6.73
2019-03-15T06:51:19.564Z,6.63
2019-03-15T06:52:19.581Z,6.64
2019-03-15T06:53:19.552Z,6.65
2019-03-15T06:54:19.611Z,6.72
2019-03-15T06:55:19.544Z,6.68
2019-03-15T06:56:19.543Z,6.76
2019-03-15T06:57:19.512Z,6.64
2019-03-15T06:58:19.583Z,6.61
2019-03-15T06:59:19.496Z,6.69
2019-03-15T07:00:20.555Z,6.75
2019-03-15T07:01:19.468Z,6.78
2019-03-15T07:02:19.665Z,6.71
2019-03-15T07:03:21.752Z,6.73
2019-03-15T07:04:19.518Z,6.73
2019-03-15T07:05:20.656Z,6.69
2019-03-15T07:06:21.478Z,6.78
2019-03-15T07:07:19.418Z,6.78
2019-03-15T07:08:19.387Z,6.75
2019-03-15T07:09:19.380Z,6.82
2019-03-15T07:10:19.399Z,6.82
2019-03-15T07:11:19.350Z,6.79
2019-03-15T07:12:20.426Z,6.82
2019-03-15T07:13:19.317Z,6.83
2019-03-15T07:14:19.360Z,6.81
2019-03-15T07:15:19.407Z,6.75
2019-03-15T07:16:20.331Z,6.71
2019-03-15T07:17:19.292Z,6.81
2019-03-15T07:18:20.372Z,6.78
2019-03-15T07:19:26.040Z,6.89
2019-03-15T07:20:20.739Z,6.82
2019-03-15T07:21:19.245Z,6.75
2019-03-15T07:22:20.141Z,6.81
2019-03-15T07:23:19.273Z,6.82
2019-03-15T07:24:24.986Z,6.81
2019-03-15T07:25:20.244Z,6.87
2019-03-15T07:26:19.178Z,6.78
2019-03-15T07:27:19.256Z,6.78
2019-03-15T07:28:19.165Z,6.82
2019-03-15T07:29:19.197Z,6.79
2019-03-15T07:30:19.127Z,6.79
2019-03-15T07:31:21.167Z,6.81
2019-03-15T07:32:19.099Z,6.83
2019-03-15T07:33:19.209Z,6.82
2019-03-15T07:34:19.082Z,6.82
2019-03-15T07:35:19.070Z,6.82
2019-03-15T07:36:19.068Z,6.94
2019-03-15T07:37:19.042Z,6.99
2019-03-15T07:38:21.092Z,6.79
2019-03-15T07:39:19.023Z,6.96
2019-03-15T07:40:19.021Z,6.97
2019-03-15T07:41:19.118Z,6.99
2019-03-15T07:42:18.994Z,6.93
2019-03-15T07:43:20.156Z,6.94
2019-03-15T07:44:18.974Z,6.96
2019-03-15T07:45:18.963Z,6.94
2019-03-15T07:46:18.955Z,7.01
2019-03-15T07:47:20.048Z,6.94
2019-03-15T07:48:22.756Z,6.86
2019-03-15T07:49:18.949Z,6.87
2019-03-15T07:50:18.898Z,6.81
2019-03-15T07:51:18.896Z,6.87
2019-03-15T07:52:18.961Z,6.78
2019-03-15T07:53:18.891Z,6.87
2019-03-15T07:54:18.886Z,6.83
2019-03-15T07:55:18.847Z,6.90
2019-03-15T07:56:18.827Z,6.86
2019-03-15T07:57:20.894Z,6.86
2019-03-15T07:58:18.818Z,6.90
2019-03-15T07:59:18.838Z,6.93
2019-03-15T08:00:18.789Z,6.94
2019-03-15T08:01:18.780Z,6.99
2019-03-15T08:02:18.739Z,7.00
2019-03-15T08:03:18.842Z,7.11
2019-03-15T08:04:18.734Z,7.12
2019-03-15T08:05:18.732Z,7.07
2019-03-15T08:06:18.714Z,7.08
2019-03-15T08:07:20.174Z,7.09
2019-03-15T08:08:18.782Z,7.07
2019-03-15T08:09:18.674Z,7.23
2019-03-15T08:10:18.773Z,7.15
2019-03-15T08:11:18.656Z,7.04
2019-03-15T08:12:18.644Z,7.14
2019-03-15T08:13:18.664Z,7.12
2019-03-15T08:14:18.649Z,7.12
2019-03-15T08:15:18.607Z,7.11
2019-03-15T08:16:18.685Z,7.07
2019-03-15T08:17:18.586Z,6.97
2019-03-15T08:18:18.659Z,6.97
2019-03-15T08:19:18.558Z,7.01
2019-03-15T08:20:20.610Z,6.99
2019-03-15T08:21:18.729Z,7.00
2019-03-15T08:22:18.518Z,6.97
2019-03-15T08:23:18.538Z,6.93
2019-03-15T08:24:19.558Z,6.86
2019-03-15T08:25:18.500Z,6.89
2019-03-15T08:26:18.570Z,6.91
2019-03-15T08:27:18.487Z,6.91
2019-03-15T08:28:18.481Z,7.01
2019-03-15T08:29:18.461Z,6.96
2019-03-15T08:30:18.442Z,6.91
2019-03-15T08:31:19.542Z,6.96
2019-03-15T08:32:18.422Z,6.99
2019-03-15T08:33:18.416Z,6.99
2019-03-15T08:34:18.386Z,6.89
2019-03-15T08:35:19.403Z,6.94
2019-03-15T08:36:20.340Z,6.90
2019-03-15T08:37:18.416Z,6.86
2019-03-15T08:38:18.358Z,6.79
2019-03-15T08:39:19.366Z,6.76
2019-03-15T08:40:18.317Z,6.78
2019-03-15T08:41:18.376Z,6.79
2019-03-15T08:42:18.286Z,6.79
2019-03-15T08:43:18.377Z,6.79
2019-03-15T08:44:18.283Z,6.73
2019-03-15T08:45:18.360Z,6.69
2019-03-15T08:46:18.249Z,6.69
2019-03-15T08:47:21.475Z,6.78
2019-03-15T08:48:18.249Z,6.81
2019-03-15T08:49:18.221Z,6.73
2019-03-15T08:50:18.190Z,6.81
2019-03-15T08:51:19.291Z,6.83
2019-03-15T08:52:18.182Z,6.79
2019-03-15T08:53:19.338Z,6.75
2019-03-15T08:54:18.151Z,6.86
2019-03-15T08:55:18.143Z,6.78
2019-03-15T08:56:18.203Z,6.93
2019-03-15T08:57:18.124Z,6.99
2019-03-15T08:58:21.921Z,6.97
2019-03-15T08:59:18.084Z,6.97
2019-03-15T09:00:18.084Z,7.07
2019-03-15T09:01:18.075Z,7.08
2019-03-15T09:02:18.116Z,7.09
2019-03-15T09:03:27.817Z,7.04
2019-03-15T09:04:21.599Z,7.12
2019-03-15T09:05:18.118Z,7.21
2019-03-15T09:06:18.077Z,7.27
2019-03-15T09:07:18.007Z,7.24
2019-03-15T09:08:19.088Z,7.19
2019-03-15T09:09:17.969Z,7.26
2019-03-15T09:10:23.296Z,7.26
2019-03-15T09:11:18.948Z,7.27
2019-03-15T09:12:19.020Z,7.29
2019-03-15T09:13:17.960Z,7.32
2019-03-15T09:14:18.030Z,7.27
2019-03-15T09:15:17.911Z,7.30
2019-03-15T09:16:17.961Z,7.19
2019-03-15T09:17:20.068Z,7.16
2019-03-15T09:18:17.952Z,7.26
2019-03-15T09:19:17.873Z,7.19
2019-03-15T09:20:17.943Z,7.24
2019-03-15T09:21:17.854Z,7.24
2019-03-15T09:22:17.834Z,7.24
2019-03-15T09:23:17.835Z,7.26
2019-03-15T09:24:18.835Z,7.26
2019-03-15T09:25:20.365Z,7.21
2019-03-15T09:26:17.858Z,7.19
2019-03-15T09:27:17.775Z,7.24
2019-03-15T09:28:17.829Z,7.32
2019-03-15T09:29:17.801Z,7.24
2019-03-15T09:30:23.559Z,7.18
2019-03-15T09:31:18.728Z,7.27
2019-03-15T09:32:17.748Z,7.24
2019-03-15T09:33:17.723Z,7.21
2019-03-15T09:34:17.709Z,7.23
2019-03-15T09:35:18.780Z,7.27
2019-03-15T09:36:17.670Z,7.24
2019-03-15T09:37:17.691Z,7.24
2019-03-15T09:38:17.641Z,7.27
2019-03-15T09:39:17.671Z,7.27
2019-03-15T09:40:17.633Z,7.29
2019-03-15T09:41:31.131Z,7.29
2019-03-15T09:42:18.604Z,7.39
2019-03-15T09:43:18.624Z,7.41
2019-03-15T09:44:17.584Z,7.42
2019-03-15T09:45:17.643Z,7.45
2019-03-15T09:46:17.567Z,7.45
2019-03-15T09:47:18.596Z,7.51
2019-03-15T09:48:17.535Z,7.47
2019-03-15T09:49:17.547Z,7.44
2019-03-15T09:50:26.548Z,7.47
2019-03-15T09:51:18.498Z,7.51
2019-03-15T09:52:17.507Z,7.55
2019-03-15T09:53:17.468Z,7.44
2019-03-15T09:54:19.539Z,7.47
2019-03-15T09:55:17.469Z,7.37
2019-03-15T09:56:18.509Z,7.45
2019-03-15T09:57:17.442Z,7.42
2019-03-15T09:58:18.458Z,7.37
2019-03-15T09:59:19.389Z,7.30
2019-03-15T10:00:17.402Z,7.32
2019-03-15T10:01:33.733Z,7.27
2019-03-15T10:02:29.630Z,7.27
2019-03-15T10:03:22.552Z,7.27
2019-03-15T10:04:17.483Z,7.30
2019-03-15T10:05:17.355Z,7.36
2019-03-15T10:06:19.528Z,7.42
2019-03-15T10:07:17.456Z,7.36
2019-03-15T10:08:17.465Z,7.44
2019-03-15T10:09:17.408Z,7.44
2019-03-15T10:10:18.809Z,7.41
2019-03-15T10:11:17.276Z,7.42
2019-03-15T10:12:17.267Z,7.44
2019-03-15T10:13:19.288Z,7.41
2019-03-15T10:14:17.252Z,7.36
2019-03-15T10:15:17.278Z,7.47
2019-03-15T10:16:17.218Z,7.45
2019-03-15T10:17:18.238Z,7.36
2019-03-15T10:18:17.213Z,7.42
2019-03-15T10:19:18.211Z,7.44
2019-03-15T10:20:17.170Z,7.44
2019-03-15T10:21:17.181Z,7.48
2019-03-15T10:22:19.202Z,7.51
2019-03-15T10:23:17.142Z,7.48
2019-03-15T10:24:17.232Z,7.55
2019-03-15T10:25:17.238Z,7.57
2019-03-15T10:26:18.153Z,7.55
2019-03-15T10:27:17.093Z,7.54
2019-03-15T10:28:18.184Z,7.58
2019-03-15T10:29:19.583Z,7.63
2019-03-15T10:30:23.946Z,7.70
2019-03-15T10:31:17.045Z,7.70
2019-03-15T10:32:17.127Z,7.73
2019-03-15T10:33:18.307Z,7.73
2019-03-15T10:34:17.030Z,7.76
2019-03-15T10:35:17.029Z,7.79
2019-03-15T10:36:16.987Z,7.89
2019-03-15T10:37:18.088Z,7.84
2019-03-15T10:38:17.019Z,7.82
2019-03-15T10:39:17.052Z,7.88
2019-03-15T10:40:16.960Z,7.84
2019-03-15T10:41:23.911Z,7.76
2019-03-15T10:42:16.923Z,7.67
2019-03-15T10:43:16.991Z,7.66
2019-03-15T10:44:17.100Z,7.55
2019-03-15T10:45:16.904Z,7.67
2019-03-15T10:46:16.993Z,7.71
2019-03-15T10:47:16.875Z,7.69
2019-03-15T10:48:25.258Z,7.69
2019-03-15T10:49:17.865Z,7.73
2019-03-15T10:50:17.884Z,7.81
2019-03-15T10:51:16.825Z,7.81
2019-03-15T10:52:17.935Z,7.69
2019-03-15T10:53:16.806Z,7.58
2019-03-15T10:54:16.903Z,7.71
2019-03-15T10:55:16.789Z,7.69
2019-03-15T10:56:16.873Z,7.69
2019-03-15T10:57:16.757Z,7.73
2019-03-15T10:58:16.808Z,7.85
2019-03-15T10:59:16.808Z,7.76
2019-03-15T11:00:16.842Z,7.88
2019-03-15T11:01:16.699Z,7.96
2019-03-15T11:02:17.799Z,8.03
2019-03-15T11:03:16.681Z,7.91
2019-03-15T11:04:17.771Z,7.99
2019-03-15T11:05:16.666Z,7.99
2019-03-15T11:06:16.742Z,7.92
2019-03-15T11:07:16.632Z,7.92
2019-03-15T11:08:16.684Z,8.00
2019-03-15T11:09:16.623Z,8.09
2019-03-15T11:10:16.714Z,8.14
2019-03-15T11:11:16.578Z,8.13
2019-03-15T11:12:16.654Z,8.18
2019-03-15T11:13:16.566Z,8.06
2019-03-15T11:14:16.629Z,8.18
2019-03-15T11:15:16.546Z,8.17
2019-03-15T11:16:16.519Z,8.14
2019-03-15T11:17:16.517Z,8.20
2019-03-15T11:18:16.558Z,8.31
2019-03-15T11:19:16.507Z,8.29
2019-03-15T11:20:16.621Z,8.13
2019-03-15T11:21:16.478Z,8.25
2019-03-15T11:22:16.460Z,8.40
2019-03-15T11:23:16.449Z,8.29
2019-03-15T11:24:16.503Z,8.34
2019-03-15T11:25:16.420Z,8.39
2019-03-15T11:26:23.481Z,8.47
2019-03-15T11:27:16.403Z,8.55
2019-03-15T11:28:16.432Z,8.67
2019-03-15T11:29:16.402Z,8.55
2019-03-15T11:30:16.481Z,8.60
2019-03-15T11:31:16.345Z,8.70
2019-03-15T11:32:22.964Z,8.73
2019-03-15T11:33:16.374Z,8.70
2019-03-15T11:34:16.374Z,8.73
2019-03-15T11:35:17.346Z,8.61
2019-03-15T11:36:16.316Z,8.67
2019-03-15T11:37:16.358Z,8.64
2019-03-15T11:38:16.325Z,8.75
2019-03-15T11:39:16.277Z,8.73
2019-03-15T11:40:18.900Z,8.73
2019-03-15T11:41:16.269Z,8.67
2019-03-15T11:42:16.297Z,8.60
2019-03-15T11:43:16.228Z,8.63
2019-03-15T11:44:16.219Z,8.64
2019-03-15T11:45:16.243Z,8.65
2019-03-15T11:46:16.552Z,8.55
2019-03-15T11:47:16.244Z,8.42
2019-03-15T11:48:16.181Z,8.42
2019-03-15T11:49:16.151Z,8.43
2019-03-15T11:50:16.173Z,8.39
2019-03-15T11:51:16.123Z,8.32
2019-03-15T11:52:16.173Z,8.27
2019-03-15T11:53:18.816Z,8.29
2019-03-15T11:54:16.095Z,8.31
2019-03-15T11:55:16.104Z,8.32
2019-03-15T11:56:26.412Z,8.29
2019-03-15T11:57:17.066Z,8.31
2019-03-15T11:58:16.076Z,8.31
2019-03-15T11:59:16.045Z,8.31
2019-03-15T12:00:16.049Z,8.40
2019-03-15T12:01:17.107Z,8.47
2019-03-15T12:02:16.008Z,8.50
2019-03-15T12:03:17.038Z,8.43
2019-03-15T12:04:15.987Z,8.50
2019-03-15T12:05:17.021Z,8.47
2019-03-15T12:06:15.961Z,8.46
2019-03-15T12:07:15.990Z,8.46
2019-03-15T12:08:15.940Z,8.54
2019-03-15T12:09:16.030Z,8.54
2019-03-15T12:10:15.931Z,8.61
2019-03-15T12:11:15.902Z,8.63
2019-03-15T12:12:15.942Z,8.60
2019-03-15T12:13:15.882Z,8.70
2019-03-15T12:14:15.965Z,8.55
2019-03-15T12:15:15.879Z,8.60
2019-03-15T12:16:15.853Z,8.58
2019-03-15T12:17:15.835Z,8.55
2019-03-15T12:18:16.864Z,8.57
2019-03-15T12:19:15.825Z,8.55
2019-03-15T12:20:15.930Z,8.61
2019-03-15T12:21:15.800Z,8.60
2019-03-15T12:22:15.796Z,8.57
2019-03-15T12:23:16.806Z,8.58
2019-03-15T12:24:15.767Z,8.60
2019-03-15T12:25:15.868Z,8.61
2019-03-15T12:26:15.738Z,8.63
2019-03-15T12:27:15.739Z,8.78
2019-03-15T12:28:15.723Z,8.70
2019-03-15T12:29:16.808Z,8.71
2019-03-15T12:30:15.822Z,8.67
2019-03-15T12:31:17.769Z,8.68
2019-03-15T12:32:15.684Z,8.70
2019-03-15T12:33:15.661Z,8.71
2019-03-15T12:34:15.731Z,8.71
2019-03-15T12:35:15.652Z,8.71
2019-03-15T12:36:16.615Z,8.64
2019-03-15T12:37:15.623Z,8.70
2019-03-15T12:38:15.615Z,8.68
2019-03-15T12:39:15.594Z,8.73
2019-03-15T12:40:15.598Z,8.63
2019-03-15T12:41:15.605Z,8.78
2019-03-15T12:42:15.556Z,8.80
2019-03-15T12:43:15.545Z,8.75
2019-03-15T12:44:15.536Z,8.73
2019-03-15T12:45:15.626Z,8.71
2019-03-15T12:46:15.507Z,8.89
2019-03-15T12:47:15.610Z,8.93
2019-03-15T12:48:15.488Z,8.83
2019-03-15T12:49:15.478Z,8.86
2019-03-15T12:50:15.563Z,8.89
2019-03-15T12:51:15.442Z,8.91
2019-03-15T12:52:16.470Z,8.79
2019-03-15T12:53:15.502Z,8.89
2019-03-15T12:54:15.401Z,8.85
2019-03-15T12:55:15.486Z,8.98
2019-03-15T12:56:15.392Z,8.97
2019-03-15T12:57:15.492Z,9.06
2019-03-15T12:58:15.373Z,8.94
2019-03-15T12:59:15.362Z,8.96
2019-03-15T13:00:15.365Z,9.01
2019-03-15T13:01:15.344Z,9.12
2019-03-15T13:02:15.326Z,9.08
2019-03-15T13:03:15.395Z,9.16
2019-03-15T13:04:15.305Z,9.22
2019-03-15T13:05:15.307Z,9.13
2019-03-15T13:06:15.346Z,9.20
2019-03-15T13:07:15.267Z,9.13
2019-03-15T13:08:15.342Z,9.19
2019-03-15T13:09:15.258Z,9.20
2019-03-15T13:10:15.248Z,9.22
2019-03-15T13:11:15.248Z,9.30
2019-03-15T13:12:15.210Z,9.30
2019-03-15T13:13:15.210Z,9.32
2019-03-15T13:14:15.250Z,9.32
2019-03-15T13:15:15.195Z,9.24
2019-03-15T13:16:15.232Z,9.34
2019-03-15T13:17:15.162Z,9.42
2019-03-15T13:18:15.221Z,9.52